createdAt,value
2022-10-10T00:01:20.843Z,0.47
2022-10-10T00:03:52.020Z,0.68
2022-10-10T00:06:20.174Z,1.02
2022-10-10T00:08:48.088Z,0.57
2022-10-10T00:11:17.122Z,0.75
2022-10-10T00:13:45.475Z,0.80
2022-10-10T00:16:15.931Z,0.70
2022-10-10T00:18:43.668Z,0.70
2022-10-10T00:21:11.405Z,0.93
2022-10-10T00:23:39.293Z,1.80
2022-10-10T00:26:08.940Z,0.63
2022-10-10T00:28:40.134Z,0.85
2022-10-10T00:31:09.181Z,0.68
2022-10-10T00:33:37.284Z,0.70
2022-10-10T00:36:05.790Z,0.40
2022-10-10T00:38:33.532Z,0.90
2022-10-10T00:41:01.628Z,0.50
2022-10-10T00:43:30.009Z,0.55
2022-10-10T00:45:57.998Z,0.70
2022-10-10T00:48:31.891Z,0.90
2022-10-10T00:51:09.225Z,0.82
2022-10-10T00:54:03.712Z,0.90
2022-10-10T00:56:40.362Z,0.57
2022-10-10T00:59:11.195Z,0.70
2022-10-10T01:01:40.325Z,0.75
2022-10-10T01:04:27.805Z,0.60
2022-10-10T01:06:55.579Z,0.60
2022-10-10T01:09:23.318Z,0.30
2022-10-10T01:12:17.986Z,0.90
2022-10-10T01:15:00.879Z,0.47
2022-10-10T01:17:43.734Z,0.50
2022-10-10T01:20:48.297Z,0.63
2022-10-10T01:23:27.774Z,0.80
2022-10-10T01:25:58.358Z,0.70
2022-10-10T01:29:01.639Z,1.40
2022-10-10T01:31:33.448Z,0.50
2022-10-10T01:34:18.861Z,0.55
2022-10-10T01:37:09.664Z,0.70
2022-10-10T01:39:58.925Z,0.60
2022-10-10T01:43:05.173Z,0.52
2022-10-10T01:45:33.592Z,0.70
2022-10-10T01:48:04.882Z,0.57
2022-10-10T01:50:38.839Z,0.70
2022-10-10T01:53:39.153Z,0.43
2022-10-10T01:56:12.259Z,0.60
2022-10-10T01:58:42.967Z,0.40
2022-10-10T02:01:35.055Z,0.35
2022-10-10T02:04:19.746Z,0.60
2022-10-10T02:07:01.944Z,1.02
2022-10-10T02:09:38.610Z,0.63
2022-10-10T02:12:08.073Z,1.40
2022-10-10T02:14:42.019Z,0.80
2022-10-10T02:17:12.845Z,0.93
2022-10-10T02:19:46.079Z,0.63
2022-10-10T02:22:15.500Z,0.70
2022-10-10T02:24:43.609Z,0.60
2022-10-10T02:27:31.460Z,0.60
2022-10-10T02:30:02.803Z,0.50
2022-10-10T02:32:43.399Z,0.68
2022-10-10T02:35:16.454Z,0.50
2022-10-10T02:37:45.747Z,0.60
2022-10-10T02:40:17.493Z,0.52
2022-10-10T02:42:45.977Z,0.45
2022-10-10T02:45:13.762Z,0.60
2022-10-10T02:47:41.133Z,0.90
2022-10-10T02:50:08.898Z,0.20
2022-10-10T02:52:36.873Z,0.73
2022-10-10T02:55:04.782Z,0.52
2022-10-10T02:57:32.465Z,0.63
2022-10-10T03:00:01.850Z,0.60
2022-10-10T03:02:29.118Z,0.60
2022-10-10T03:04:56.699Z,0.50
2022-10-10T03:07:24.445Z,0.60
2022-10-10T03:09:52.389Z,0.82
2022-10-10T03:12:19.757Z,0.73
2022-10-10T03:14:47.519Z,0.75
2022-10-10T03:17:15.821Z,0.40
2022-10-10T03:19:43.380Z,0.60
2022-10-10T03:22:11.266Z,0.73
2022-10-10T03:24:38.573Z,0.68
2022-10-10T03:27:06.289Z,0.65
2022-10-10T03:29:33.985Z,1.40
2022-10-10T03:32:06.874Z,0.63
2022-10-10T03:34:36.644Z,0.85
2022-10-10T03:37:04.245Z,1.13
2022-10-10T03:39:32.157Z,1.00
2022-10-10T03:41:59.874Z,2.92
2022-10-10T03:44:27.461Z,2.10
2022-10-10T03:46:54.849Z,2.15
2022-10-10T03:49:22.586Z,1.33
2022-10-10T03:51:50.313Z,1.77
2022-10-10T03:54:17.997Z,2.13
2022-10-10T03:56:45.700Z,2.17
2022-10-10T03:59:13.441Z,1.95
2022-10-10T04:01:41.335Z,1.88
2022-10-10T04:04:08.973Z,1.35
2022-10-10T04:06:36.749Z,1.10
2022-10-10T04:09:04.561Z,1.17
2022-10-10T04:11:31.977Z,0.63
2022-10-10T04:14:00.883Z,1.27
2022-10-10T04:16:28.535Z,1.20
2022-10-10T04:18:56.465Z,1.25
2022-10-10T04:21:23.768Z,0.95
2022-10-10T04:23:51.504Z,1.00
2022-10-10T04:26:19.057Z,1.40
2022-10-10T04:28:46.910Z,1.00
2022-10-10T04:31:14.512Z,0.90
2022-10-10T04:33:42.202Z,1.17
2022-10-10T04:36:09.740Z,1.35
2022-10-10T04:38:37.398Z,1.73
2022-10-10T04:41:05.178Z,1.20
2022-10-10T04:43:34.504Z,1.10
2022-10-10T04:46:02.126Z,2.15
2022-10-10T04:48:29.452Z,1.50
2022-10-10T04:50:58.670Z,2.08
2022-10-10T04:53:26.657Z,1.15
2022-10-10T04:55:54.345Z,1.80
2022-10-10T04:58:21.977Z,2.15
2022-10-10T05:00:54.821Z,1.90
2022-10-10T05:03:23.332Z,3.33
2022-10-10T05:05:51.036Z,1.77
2022-10-10T05:08:19.461Z,2.13
2022-10-10T05:10:47.810Z,3.25
2022-10-10T05:13:17.443Z,2.38
2022-10-10T05:15:47.272Z,2.00
2022-10-10T05:18:14.711Z,2.80
2022-10-10T05:20:44.031Z,2.20
2022-10-10T05:23:11.783Z,2.92
2022-10-10T05:25:39.394Z,2.92
2022-10-10T05:28:06.858Z,2.20
2022-10-10T05:30:34.493Z,2.42
2022-10-10T05:33:02.382Z,3.92
2022-10-10T05:35:30.653Z,3.92
2022-10-10T05:37:58.762Z,2.70
2022-10-10T05:40:26.364Z,3.28
2022-10-10T05:42:54.302Z,4.28
2022-10-10T05:45:21.970Z,3.08
2022-10-10T05:47:49.439Z,3.67
2022-10-10T05:50:38.621Z,4.63
2022-10-10T05:53:07.087Z,3.92
2022-10-10T05:55:35.869Z,4.55
2022-10-10T05:58:06.128Z,3.83
2022-10-10T06:00:35.187Z,4.35
2022-10-10T06:03:03.090Z,3.25
2022-10-10T06:05:30.585Z,3.13
2022-10-10T06:08:10.693Z,7.40
2022-10-10T06:10:41.888Z,7.38
2022-10-10T06:13:10.925Z,4.15
2022-10-10T06:15:39.364Z,4.80
2022-10-10T06:18:07.747Z,5.07
2022-10-10T06:20:39.088Z,4.38
2022-10-10T06:23:08.250Z,6.65
2022-10-10T06:25:41.580Z,5.03
2022-10-10T06:28:10.369Z,8.02
2022-10-10T06:30:48.709Z,6.10
2022-10-10T06:33:19.163Z,6.28
2022-10-10T06:35:49.578Z,7.07
2022-10-10T06:38:17.647Z,7.25
2022-10-10T06:40:45.691Z,8.45
2022-10-10T06:43:15.317Z,7.60
2022-10-10T06:45:47.570Z,5.90
2022-10-10T06:48:15.884Z,10.88
2022-10-10T06:50:43.871Z,3.53
2022-10-10T06:53:14.105Z,5.95
2022-10-10T06:55:47.486Z,6.93
2022-10-10T06:58:15.190Z,8.10
2022-10-10T07:00:42.909Z,5.55
2022-10-10T07:03:12.858Z,9.23
2022-10-10T07:05:41.476Z,5.70
2022-10-10T07:08:10.615Z,5.85
2022-10-10T07:10:38.259Z,7.65
2022-10-10T07:13:06.333Z,8.05
2022-10-10T07:15:34.908Z,7.78
2022-10-10T07:18:02.601Z,8.35
2022-10-10T07:20:30.389Z,4.63
2022-10-10T07:22:58.363Z,9.52
2022-10-10T07:25:26.213Z,7.13
2022-10-10T07:27:54.029Z,6.82
2022-10-10T07:30:21.791Z,4.35
2022-10-10T07:32:49.829Z,7.30
2022-10-10T07:35:17.879Z,8.57
2022-10-10T07:37:45.673Z,9.23
2022-10-10T07:40:13.430Z,7.07
2022-10-10T07:42:41.640Z,6.78
2022-10-10T07:45:12.223Z,8.88
2022-10-10T07:47:41.907Z,11.15
2022-10-10T07:50:10.066Z,5.70
2022-10-10T07:52:37.922Z,8.38
2022-10-10T07:55:06.196Z,8.07
2022-10-10T07:57:35.235Z,6.30
2022-10-10T08:00:06.495Z,5.88
2022-10-10T08:02:34.325Z,6.45
2022-10-10T08:05:01.802Z,8.05
2022-10-10T08:07:29.625Z,4.75
2022-10-10T08:09:57.439Z,7.95
2022-10-10T08:12:25.219Z,6.95
2022-10-10T08:14:54.213Z,11.15
2022-10-10T08:17:23.381Z,9.18
2022-10-10T08:19:52.382Z,9.00
2022-10-10T08:22:19.983Z,6.88
2022-10-10T08:24:48.043Z,9.18
2022-10-10T08:27:17.816Z,9.48
2022-10-10T08:29:45.406Z,7.32
2022-10-10T08:32:13.226Z,8.18
2022-10-10T08:34:41.198Z,9.68
2022-10-10T08:37:11.386Z,6.88
2022-10-10T08:39:39.147Z,13.75
2022-10-10T08:42:07.146Z,8.43
2022-10-10T08:44:49.310Z,12.88
2022-10-10T08:47:21.642Z,7.18
2022-10-10T08:50:27.119Z,6.07
2022-10-10T08:53:00.163Z,8.82
2022-10-10T08:55:38.218Z,7.45
2022-10-10T08:58:24.413Z,6.32
2022-10-10T09:01:23.874Z,8.80
2022-10-10T09:04:18.175Z,8.77
2022-10-10T09:06:51.495Z,4.10
2022-10-10T09:09:23.524Z,8.25
2022-10-10T09:12:21.595Z,8.35
2022-10-10T09:15:31.493Z,5.65
2022-10-10T09:18:19.525Z,11.43
2022-10-10T09:21:00.964Z,6.78
2022-10-10T09:23:54.823Z,7.07
2022-10-10T09:26:38.523Z,8.30
2022-10-10T09:29:24.031Z,6.47
2022-10-10T09:31:56.415Z,6.13
2022-10-10T09:34:36.432Z,7.22
2022-10-10T09:37:06.212Z,6.10
2022-10-10T09:39:44.567Z,7.03
2022-10-10T09:42:13.439Z,6.50
2022-10-10T09:44:41.401Z,10.65
2022-10-10T09:47:14.876Z,6.80
2022-10-10T09:49:42.841Z,7.68
2022-10-10T09:52:28.330Z,10.60
2022-10-10T09:55:24.679Z,5.63
2022-10-10T09:57:55.910Z,14.32
2022-10-10T10:00:29.867Z,13.50
2022-10-10T10:03:17.899Z,12.10
2022-10-10T10:05:55.918Z,8.18
2022-10-10T10:08:28.712Z,8.95
2022-10-10T10:10:58.452Z,4.32
2022-10-10T10:13:36.591Z,6.65
2022-10-10T10:16:14.675Z,5.47
2022-10-10T10:18:48.373Z,6.75
2022-10-10T10:21:23.984Z,4.35
2022-10-10T10:23:59.405Z,3.08
2022-10-10T10:26:27.634Z,6.50
2022-10-10T10:28:57.763Z,5.72
2022-10-10T10:31:42.583Z,5.57
2022-10-10T10:34:47.059Z,4.70
2022-10-10T10:37:15.306Z,3.85
2022-10-10T10:40:09.929Z,6.13
2022-10-10T10:42:56.123Z,4.85
2022-10-10T10:45:41.970Z,2.58
2022-10-10T10:48:32.018Z,7.13
2022-10-10T10:51:26.868Z,5.30
2022-10-10T10:54:16.352Z,4.65
2022-10-10T10:56:58.943Z,7.40
2022-10-10T11:00:20.740Z,7.07
2022-10-10T11:03:20.973Z,9.50
2022-10-10T11:06:28.103Z,7.68
2022-10-10T11:08:55.971Z,6.63
2022-10-10T11:11:29.859Z,6.80
2022-10-10T11:14:22.286Z,6.70
2022-10-10T11:16:56.623Z,7.90
2022-10-10T11:19:47.141Z,6.00
2022-10-10T11:22:20.004Z,10.02
2022-10-10T11:24:54.285Z,10.50
2022-10-10T11:27:42.094Z,9.10
2022-10-10T11:30:29.108Z,6.85
2022-10-10T11:33:14.742Z,4.95
2022-10-10T11:36:07.803Z,10.88
2022-10-10T11:38:45.397Z,7.63
2022-10-10T11:41:23.413Z,6.47
2022-10-10T11:44:00.770Z,6.75
2022-10-10T11:46:45.951Z,8.55
2022-10-10T11:49:13.740Z,8.45
2022-10-10T11:52:09.522Z,9.95
2022-10-10T11:54:53.228Z,8.32
2022-10-10T11:57:33.041Z,6.20
2022-10-10T12:00:04.937Z,5.90
2022-10-10T12:02:40.874Z,7.63
2022-10-10T12:07:54.649Z,8.07
2022-10-10T12:10:35.720Z,7.30
2022-10-10T12:13:33.832Z,3.88
2022-10-10T12:16:17.371Z,7.10
2022-10-10T12:18:54.854Z,5.80
2022-10-10T12:21:26.326Z,8.20
2022-10-10T12:24:17.307Z,6.43
2022-10-10T12:26:54.356Z,8.32
2022-10-10T12:29:50.206Z,8.05
2022-10-10T12:32:27.291Z,4.47
2022-10-10T12:34:56.864Z,11.55
2022-10-10T12:37:36.543Z,5.25
2022-10-10T12:40:10.125Z,6.35
2022-10-10T12:42:50.107Z,5.13
2022-10-10T12:45:30.449Z,5.85
2022-10-10T12:48:06.990Z,5.22
2022-10-10T12:50:47.943Z,6.22
2022-10-10T12:53:20.711Z,5.93
2022-10-10T12:55:51.332Z,3.78
2022-10-10T12:58:27.195Z,6.25
2022-10-10T13:00:58.436Z,4.78
2022-10-10T13:03:47.774Z,3.97
2022-10-10T13:06:39.461Z,3.83
2022-10-10T13:09:35.113Z,3.40
2022-10-10T13:12:06.445Z,3.63
2022-10-10T13:14:44.361Z,4.85
2022-10-10T13:17:37.122Z,6.00
2022-10-10T13:20:06.181Z,4.70
2022-10-10T13:22:42.947Z,4.25
2022-10-10T13:25:13.053Z,3.38
2022-10-10T13:27:41.148Z,5.97
2022-10-10T13:30:09.380Z,4.05
2022-10-10T13:32:37.722Z,4.65
2022-10-10T13:35:13.496Z,3.15
2022-10-10T13:37:42.909Z,4.93
2022-10-10T13:40:27.092Z,6.03
2022-10-10T13:42:55.677Z,5.35
2022-10-10T13:45:31.011Z,5.60
2022-10-10T13:47:59.028Z,2.97
2022-10-10T13:50:33.256Z,4.63
2022-10-10T13:53:32.140Z,4.80
2022-10-10T13:56:00.097Z,4.32
2022-10-10T13:58:29.084Z,2.05
2022-10-10T14:01:01.195Z,5.43
2022-10-10T14:03:30.719Z,2.95
2022-10-10T14:05:58.652Z,2.90
2022-10-10T14:08:28.719Z,2.10
2022-10-10T14:11:07.832Z,4.63
2022-10-10T14:13:38.390Z,4.90
2022-10-10T14:16:14.273Z,4.63
2022-10-10T14:18:42.451Z,3.95
2022-10-10T14:21:10.374Z,3.40
2022-10-10T14:23:38.436Z,1.95
2022-10-10T14:26:08.274Z,1.60
2022-10-10T14:28:39.264Z,1.52
2022-10-10T14:31:07.321Z,2.42
2022-10-10T14:33:35.630Z,2.22
2022-10-10T14:36:03.680Z,3.20
2022-10-10T14:38:31.666Z,1.98
2022-10-10T14:40:59.832Z,3.95
2022-10-10T14:43:28.169Z,2.13
2022-10-10T14:45:56.072Z,2.58
2022-10-10T14:48:23.998Z,4.60
2022-10-10T14:50:51.877Z,2.50
2022-10-10T14:53:19.754Z,3.70
2022-10-10T14:55:48.543Z,3.78
2022-10-10T14:58:21.871Z,3.33
2022-10-10T15:00:54.508Z,2.35
2022-10-10T15:03:22.513Z,3.08
2022-10-10T15:05:50.918Z,3.25
2022-10-10T15:08:19.542Z,3.15
2022-10-10T15:10:47.605Z,2.33
2022-10-10T15:13:16.935Z,3.45
2022-10-10T15:15:44.833Z,4.95
2022-10-10T15:18:39.656Z,4.50
2022-10-10T15:21:02.105Z,4.18
2022-10-10T15:23:29.939Z,3.55
2022-10-10T15:26:00.778Z,2.75
2022-10-10T15:28:28.690Z,3.38
2022-10-10T15:30:57.689Z,4.03
2022-10-10T15:33:25.562Z,3.05
2022-10-10T15:36:09.666Z,3.40
2022-10-10T15:38:38.396Z,2.92
2022-10-10T15:41:09.283Z,3.47
2022-10-10T15:43:52.108Z,3.40
2022-10-10T15:46:21.530Z,3.72
2022-10-10T15:48:49.454Z,3.00
2022-10-10T15:51:17.350Z,2.83
2022-10-10T15:53:46.771Z,2.97
2022-10-10T15:56:16.985Z,2.78
2022-10-10T15:58:44.976Z,2.45
2022-10-10T16:01:20.387Z,2.80
2022-10-10T16:03:49.502Z,2.40
2022-10-10T16:06:18.488Z,2.25
2022-10-10T16:08:52.761Z,2.35
2022-10-10T16:11:32.302Z,2.55
2022-10-10T16:14:00.489Z,2.22
2022-10-10T16:16:28.752Z,3.03
2022-10-10T16:18:56.681Z,1.75
2022-10-10T16:21:25.103Z,3.10
2022-10-10T16:23:57.739Z,2.13
2022-10-10T16:26:32.203Z,1.88
2022-10-10T16:29:01.138Z,2.28
2022-10-10T16:31:29.471Z,2.60
2022-10-10T16:33:57.626Z,2.60
2022-10-10T16:36:28.583Z,1.92
2022-10-10T16:38:57.921Z,1.60
2022-10-10T16:41:47.083Z,3.13
2022-10-10T16:44:15.895Z,1.52
2022-10-10T16:46:44.808Z,1.90
2022-10-10T16:49:16.462Z,1.83
2022-10-10T16:51:44.245Z,1.65
2022-10-10T16:54:12.046Z,1.60
2022-10-10T16:56:39.738Z,1.25
2022-10-10T16:59:07.852Z,1.60
2022-10-10T17:01:36.819Z,1.95
2022-10-10T17:04:05.344Z,1.80
2022-10-10T17:06:37.647Z,2.53
2022-10-10T17:09:06.452Z,1.52
2022-10-10T17:11:34.415Z,2.55
2022-10-10T17:14:02.416Z,1.75
2022-10-10T17:19:20.342Z,2.45
2022-10-10T17:21:48.515Z,1.25
2022-10-10T17:24:18.008Z,2.85
2022-10-10T17:26:45.797Z,1.80
2022-10-10T17:29:14.038Z,1.50
2022-10-10T17:31:41.885Z,1.70
2022-10-10T17:34:09.630Z,1.70
2022-10-10T17:36:37.417Z,1.40
2022-10-10T17:39:05.691Z,1.20
2022-10-10T17:41:33.537Z,2.30
2022-10-10T17:44:01.511Z,1.45
2022-10-10T17:46:36.331Z,2.53
2022-10-10T17:49:09.822Z,1.30
2022-10-10T17:51:37.988Z,1.98
2022-10-10T17:54:06.688Z,1.10
2022-10-10T17:56:34.912Z,1.80
2022-10-10T17:59:05.509Z,2.22
2022-10-10T18:01:33.413Z,1.60
2022-10-10T18:04:02.123Z,2.38
2022-10-10T18:06:30.187Z,2.35
2022-10-10T18:08:58.193Z,1.70
2022-10-10T18:11:31.196Z,2.13
2022-10-10T18:14:02.508Z,1.50
2022-10-10T18:16:36.652Z,2.17
2022-10-10T18:19:08.106Z,1.48
2022-10-10T18:21:36.290Z,2.58
2022-10-10T18:24:04.016Z,1.23
2022-10-10T18:26:32.213Z,2.83
2022-10-10T18:29:00.119Z,1.70
2022-10-10T18:31:33.823Z,1.90
2022-10-10T18:34:01.880Z,1.45
2022-10-10T18:36:31.657Z,1.75
2022-10-10T18:39:04.468Z,1.60
2022-10-10T18:41:35.168Z,2.22
2022-10-10T18:44:08.067Z,1.20
2022-10-10T18:46:35.986Z,2.03
2022-10-10T18:49:04.750Z,1.58
2022-10-10T18:51:32.470Z,1.80
2022-10-10T18:54:07.591Z,1.38
2022-10-10T18:56:37.987Z,2.00
2022-10-10T18:59:07.226Z,1.27
2022-10-10T19:01:36.866Z,1.70
2022-10-10T19:04:06.109Z,1.35
2022-10-10T19:06:33.879Z,2.88
2022-10-10T19:09:06.541Z,1.58
2022-10-10T19:11:39.245Z,2.28
2022-10-10T19:14:12.242Z,1.83
2022-10-10T19:16:41.491Z,1.35
2022-10-10T19:19:09.510Z,1.50
2022-10-10T19:21:39.819Z,1.13
2022-10-10T19:24:08.990Z,1.20
2022-10-10T19:26:36.874Z,1.60
2022-10-10T19:29:07.532Z,1.45
2022-10-10T19:31:36.439Z,1.60
2022-10-10T19:34:04.354Z,1.00
2022-10-10T19:36:32.103Z,1.98
2022-10-10T19:39:02.671Z,1.02
2022-10-10T19:41:30.807Z,1.50
2022-10-10T19:43:59.016Z,1.00
2022-10-10T19:46:27.761Z,1.65
2022-10-10T19:48:57.369Z,1.25
2022-10-10T19:51:26.210Z,1.15
2022-10-10T19:53:54.026Z,1.02
2022-10-10T19:56:26.644Z,1.90
2022-10-10T19:58:55.788Z,1.13
2022-10-10T20:01:28.338Z,1.45
2022-10-10T20:03:56.959Z,1.10
2022-10-10T20:06:24.710Z,1.52
2022-10-10T20:08:52.302Z,1.13
2022-10-10T20:11:20.464Z,0.80
2022-10-10T20:13:53.160Z,1.00
2022-10-10T20:16:21.611Z,1.35
2022-10-10T20:18:49.339Z,1.10
2022-10-10T20:21:19.233Z,1.50
2022-10-10T20:23:48.515Z,1.23
2022-10-10T20:26:19.553Z,0.95
2022-10-10T20:28:47.596Z,1.15
2022-10-10T20:31:20.222Z,1.05
2022-10-10T20:33:49.317Z,1.17
2022-10-10T20:36:17.890Z,1.10
2022-10-10T20:38:51.541Z,1.88
2022-10-10T20:41:19.223Z,0.98
2022-10-10T20:43:46.532Z,0.90
2022-10-10T20:46:14.991Z,1.05
2022-10-10T20:48:42.857Z,0.95
2022-10-10T20:51:13.639Z,1.35
2022-10-10T20:53:45.209Z,0.93
2022-10-10T20:56:13.464Z,0.90
2022-10-10T20:58:42.531Z,1.67
2022-10-10T21:01:15.374Z,0.85
2022-10-10T21:03:43.714Z,0.70
2022-10-10T21:06:17.526Z,1.25
2022-10-10T21:08:45.269Z,1.48
2022-10-10T21:11:14.475Z,1.27
2022-10-10T21:13:43.463Z,0.88
2022-10-10T21:16:14.494Z,0.80
2022-10-10T21:18:49.822Z,1.58
2022-10-10T21:23:56.764Z,1.27
2022-10-10T21:26:25.180Z,2.00
2022-10-10T21:28:53.292Z,1.20
2022-10-10T21:31:26.615Z,1.00
2022-10-10T21:33:54.440Z,1.05
2022-10-10T21:36:22.796Z,1.50
2022-10-10T21:38:50.570Z,1.23
2022-10-10T21:41:20.062Z,22.83
2022-10-10T21:43:51.482Z,28.30
2022-10-10T21:46:23.409Z,27.95
2022-10-10T21:48:52.528Z,7.25
2022-10-10T21:51:20.634Z,24.35
2022-10-10T21:53:48.867Z,31.73
2022-10-10T21:56:16.596Z,23.25
2022-10-10T21:58:45.376Z,2.03
2022-10-10T22:01:16.609Z,32.38
2022-10-10T22:03:46.542Z,5.03
2022-10-10T22:06:16.682Z,35.17
2022-10-10T22:08:44.864Z,2.45
2022-10-10T22:11:15.082Z,2.40
2022-10-10T22:13:43.345Z,1.20
2022-10-10T22:16:11.913Z,5.03
2022-10-10T22:18:42.892Z,9.30
2022-10-10T22:21:15.735Z,16.23
2022-10-10T22:23:44.511Z,19.30
2022-10-10T22:26:14.781Z,23.83
2022-10-10T22:28:42.671Z,25.25
2022-10-10T22:31:13.984Z,34.53
2022-10-10T22:33:41.920Z,16.85
2022-10-10T22:36:10.097Z,25.83
2022-10-10T22:38:41.725Z,1.83
2022-10-10T22:41:10.070Z,2.78
2022-10-10T22:43:38.080Z,20.67
2022-10-10T22:46:06.731Z,8.45
2022-10-10T22:48:34.754Z,10.02
2022-10-10T22:51:08.137Z,2.15
2022-10-10T22:53:35.934Z,11.27
2022-10-10T22:56:04.420Z,7.50
2022-10-10T22:58:32.352Z,24.92
2022-10-10T23:01:08.860Z,17.23
2022-10-10T23:03:36.847Z,19.90
2022-10-10T23:06:05.075Z,21.98
2022-10-10T23:08:32.927Z,27.52
2022-10-10T23:11:00.787Z,32.30
2022-10-10T23:13:29.541Z,23.05
2022-10-10T23:15:57.248Z,2.30
2022-10-10T23:18:24.998Z,0.75
2022-10-10T23:20:52.729Z,0.93
2022-10-10T23:23:20.559Z,0.93
2022-10-10T23:25:48.787Z,0.52
2022-10-10T23:28:18.979Z,0.40
2022-10-10T23:30:47.702Z,0.70
2022-10-10T23:33:16.264Z,0.77
2022-10-10T23:35:43.762Z,0.77
2022-10-10T23:38:11.727Z,0.52
2022-10-10T23:40:39.533Z,1.02
2022-10-10T23:43:07.806Z,0.82
2022-10-10T23:45:40.010Z,1.35
2022-10-10T23:48:09.144Z,0.50
2022-10-10T23:50:36.963Z,0.93
2022-10-10T23:53:04.753Z,1.00
2022-10-10T23:55:32.702Z,0.80
2022-10-10T23:58:02.924Z,0.35
